Time;durP1;ratioP1;P1;durP2;ratioP2;P2;SDS_P1;SDS_P2;PMS_P1;PMS_P2;Temp;Humidity;BMP_temperature;BMP_pressure;BME280_temperature;BME280_humidity;BME280_pressure;Samples;Min_cycle;Max_cycle;Signal;HPM_P1;HPM_P2
2023/04/18 00:07:22;;;;;;;1173.78;999.90;;;;;;;22.04;52.56;100098.06;20726474;28;20056;-77
2023/04/18 00:17:22;;;;;;;1173.18;999.90;;;;;;;22.02;52.67;100107.94;20739215;28;20060;-77
2023/04/18 00:27:22;;;;;;;1172.95;999.90;;;;;;;22.01;52.84;100106.25;20733635;28;20110;-75
2023/04/18 00:37:25;;;;;;;1171.68;999.90;;;;;;;22.02;52.86;100109.72;20727191;28;20034;-76
2023/04/18 00:47:27;;;;;;;1174.47;999.90;;;;;;;22.00;52.65;100114.31;20722922;28;20064;-77
2023/04/18 00:57:29;;;;;;;1164.88;999.90;;;;;;;21.97;52.88;100106.66;20725482;28;20037;-76
2023/04/18 01:07:32;;;;;;;1167.50;999.90;;;;;;;21.93;53.11;100105.25;20727801;28;20497;-77
2023/04/18 01:17:35;;;;;;;1170.38;999.90;;;;;;;21.95;53.13;100105.94;20717506;28;20275;-77
2023/04/18 01:27:37;;;;;;;1171.50;999.90;;;;;;;21.93;52.70;100097.34;20719128;28;20045;-76
2023/04/18 01:37:37;;;;;;;1173.40;999.90;;;;;;;21.93;52.62;100092.88;20738502;28;20128;-76
2023/04/18 01:47:38;;;;;;;1172.90;999.90;;;;;;;21.94;52.52;100096.38;20721621;28;20080;-77
2023/04/18 01:57:38;;;;;;;1174.20;999.90;;;;;;;21.92;52.54;100101.75;20727289;28;20041;-77
2023/04/18 02:07:41;;;;;;;1173.30;999.90;;;;;;;21.89;52.87;100104.69;20725545;28;20041;-77
2023/04/18 02:17:43;;;;;;;1174.88;999.90;;;;;;;21.90;52.58;100106.34;20725615;28;20069;-77
2023/04/18 02:27:43;;;;;;;1172.75;999.90;;;;;;;21.90;52.51;100104.53;20728233;28;20496;-75
2023/04/18 02:37:44;;;;;;;1171.20;999.90;;;;;;;21.86;52.55;100103.13;20725926;28;20387;-77
2023/04/18 02:47:44;;;;;;;1171.18;999.90;;;;;;;21.87;52.42;100118.00;20725614;28;20033;-77
2023/04/18 02:57:45;;;;;;;1173.10;999.90;;;;;;;21.84;52.79;100118.25;20735690;28;20429;-77
2023/04/18 03:07:45;;;;;;;1168.13;999.90;;;;;;;21.84;52.58;100122.69;20737856;28;20077;-78
2023/04/18 03:17:46;;;;;;;1170.00;999.90;;;;;;;21.83;52.99;100123.66;20736694;28;20087;-76
2023/04/18 03:27:47;;;;;;;1168.88;999.90;;;;;;;21.80;52.74;100132.66;20742147;28;20120;-76
2023/04/18 03:37:49;;;;;;;1169.53;999.90;;;;;;;21.82;52.48;100125.44;20734159;28;20052;-75
2023/04/18 03:47:49;;;;;;;1163.05;999.90;;;;;;;21.79;52.46;100130.13;20724133;28;20056;-75
2023/04/18 03:57:50;;;;;;;1170.55;999.90;;;;;;;21.83;52.89;100140.28;20699518;28;20046;-74
2023/04/18 04:07:50;;;;;;;1170.57;999.90;;;;;;;21.88;53.10;100148.63;20717038;28;20041;-75
2023/04/18 04:17:51;;;;;;;1169.00;999.90;;;;;;;21.86;52.97;100158.50;20718390;28;20045;-79
2023/04/18 04:27:52;;;;;;;1163.45;999.90;;;;;;;21.88;53.13;100164.44;20725238;28;20037;-79
2023/04/18 04:37:53;;;;;;;1163.32;999.90;;;;;;;21.93;53.82;100171.16;20711730;28;20053;-83
2023/04/18 04:47:54;;;;;;;1170.57;999.90;;;;;;;21.93;54.17;100184.34;20721712;28;20076;-78
2023/04/18 04:57:54;;;;;;;1160.43;999.90;;;;;;;21.62;49.31;100181.59;20726033;28;20054;-78
2023/04/18 05:07:55;;;;;;;1146.18;999.90;;;;;;;21.24;47.69;100189.84;20715603;28;20064;-75
2023/04/18 05:17:56;;;;;;;1152.63;999.90;;;;;;;21.45;49.41;100194.34;20697820;28;20302;-76
2023/04/18 05:27:59;;;;;;;1154.65;999.90;;;;;;;21.53;49.79;100201.59;20708577;28;20692;-77
2023/04/18 05:37:59;;;;;;;1154.97;999.90;;;;;;;21.59;50.89;100201.13;20709341;28;20157;-76
2023/04/18 05:48:00;;;;;;;1162.10;999.90;;;;;;;21.64;51.93;100206.88;20721822;28;20349;-77
2023/04/18 05:58:00;;;;;;;1163.07;999.90;;;;;;;21.70;52.35;100202.88;20717682;28;20038;-76
2023/04/18 06:08:00;;;;;;;1163.60;999.90;;;;;;;21.72;52.31;100208.88;20709033;28;20033;-76
2023/04/18 06:18:01;;;;;;;1164.70;999.90;;;;;;;21.75;52.48;100212.09;20718596;28;20045;-76
2023/04/18 06:28:01;;;;;;;1165.13;999.90;;;;;;;21.78;52.71;100228.63;20716750;28;20048;-77
2023/04/18 06:38:02;;;;;;;1167.65;999.90;;;;;;;21.81;53.10;100228.34;20734580;28;20050;-77
2023/04/18 06:48:03;;;;;;;1168.97;999.90;;;;;;;21.81;52.86;100231.81;20718395;28;20045;-76
2023/04/18 06:58:04;;;;;;;1161.95;999.90;;;;;;;21.85;52.56;100227.13;20733495;28;20050;-77
2023/04/18 07:08:04;;;;;;;1166.75;999.90;;;;;;;21.85;52.84;100238.53;20731888;28;20125;-76
2023/04/18 07:18:05;;;;;;;1165.65;999.90;;;;;;;21.85;52.73;100237.66;20739412;28;20209;-75
2023/04/18 07:28:05;;;;;;;1166.68;999.90;;;;;;;21.91;52.87;100251.19;20720726;28;20057;-75
2023/04/18 07:38:06;;;;;;;1159.80;999.90;;;;;;;21.94;52.76;100260.66;20724362;28;20038;-75
2023/04/18 07:48:07;;;;;;;1165.53;999.90;;;;;;;21.91;52.75;100256.47;20726194;28;20057;-77
2023/04/18 07:58:08;;;;;;;1166.13;999.90;;;;;;;21.97;53.14;100268.31;20723748;28;20060;-74
2023/04/18 08:08:10;;;;;;;1168.53;999.90;;;;;;;22.00;52.91;100273.31;20730718;28;20054;-75
2023/04/18 08:18:10;;;;;;;1164.67;999.90;;;;;;;22.03;52.75;100267.81;20728709;28;20041;-75
2023/04/18 08:28:11;;;;;;;1168.65;999.90;;;;;;;22.06;52.79;100274.63;20737639;28;20054;-74
2023/04/18 08:38:12;;;;;;;1171.10;999.90;;;;;;;22.09;52.99;100282.25;20721803;28;20129;-74
2023/04/18 08:48:16;;;;;;;1172.13;999.90;;;;;;;22.15;52.84;100283.56;20742490;28;20385;-75
2023/04/18 08:58:21;;;;;;;1174.30;999.90;;;;;;;22.16;53.01;100277.31;20724959;28;20077;-75
2023/04/18 09:08:23;;;;;;;1177.38;999.90;;;;;;;22.19;52.56;100280.53;20728452;28;20048;-75
2023/04/18 09:18:23;;;;;;;1171.67;999.90;;;;;;;22.22;52.79;100282.91;20707415;28;20033;-75
2023/04/18 09:28:31;;;;;;;1177.15;999.90;;;;;;;22.25;52.59;100287.09;20724457;28;20180;-76
2023/04/18 09:38:39;;;;;;;1178.13;999.90;;;;;;;22.28;52.47;100281.56;20711922;28;20072;-74
2023/04/18 09:48:40;;;;;;;1179.03;999.90;;;;;;;22.32;52.65;100271.59;20707522;28;20971;-74
2023/04/18 09:58:43;;;;;;;1182.75;999.90;;;;;;;22.35;52.27;100274.81;20700270;28;20053;-74
2023/04/18 10:08:44;;;;;;;1178.85;999.90;;;;;;;22.41;52.50;100270.88;20710700;28;20049;-75
2023/04/18 10:18:45;;;;;;;1182.13;999.90;;;;;;;22.45;52.49;100274.91;20704105;28;20041;-75
2023/04/18 10:28:56;;;;;;;1183.03;999.90;;;;;;;22.47;52.43;100270.34;20711361;28;20046;-76
2023/04/18 10:39:18;;;;;;;1176.32;999.90;;;;;;;22.50;52.37;100274.53;20700546;28;20131;-76
2023/04/18 10:49:26;;;;;;;1182.68;999.90;;;;;;;22.51;52.12;100266.47;20709373;28;20051;-76
2023/04/18 10:59:29;;;;;;;1184.90;999.90;;;;;;;22.55;52.04;100257.31;20701362;28;20038;-74
2023/04/18 11:09:29;;;;;;;1182.43;999.90;;;;;;;22.58;52.13;100258.84;20703829;28;20050;-75
2023/04/18 11:19:30;;;;;;;1180.22;999.90;;;;;;;22.60;51.81;100262.19;20728066;28;20042;-75
2023/04/18 11:29:31;;;;;;;1184.97;999.90;;;;;;;22.62;51.96;100275.25;20717764;28;20064;-76
2023/04/18 11:39:41;;;;;;;1183.32;999.90;;;;;;;22.49;46.68;100268.41;20726750;28;20054;-74
2023/04/18 11:49:42;;;;;;;1186.53;999.90;;;;;;;22.50;48.93;100269.25;20733176;28;20092;-76
2023/04/18 11:59:57;;;;;;;1186.10;999.90;;;;;;;22.54;49.67;100257.44;20726945;28;21380;-77
2023/04/18 12:09:58;;;;;;;1185.82;999.90;;;;;;;22.52;45.16;100243.53;20720047;28;20045;-73
2023/04/18 12:20:04;;;;;;;1185.35;999.90;;;;;;;22.55;43.89;100251.22;20708173;28;20034;-74
2023/04/18 12:30:05;;;;;;;1182.35;999.90;;;;;;;22.52;41.64;100254.94;20727473;28;20049;-75
2023/04/18 12:40:07;;;;;;;1180.10;999.90;;;;;;;22.46;39.31;100267.81;20737255;28;20144;-75
2023/04/18 12:50:09;;;;;;;1171.85;999.90;;;;;;;22.34;37.70;100253.84;20713472;28;20073;-75
2023/04/18 13:00:11;;;;;;;1177.57;999.90;;;;;;;22.38;37.49;100250.84;20708189;28;20035;-75
2023/04/18 13:10:15;;;;;;;1181.77;999.90;;;;;;;22.56;39.25;100252.88;20708249;28;20048;-74
2023/04/18 13:20:23;;;;;;;1190.70;999.90;;;;;;;22.65;39.10;100243.34;20705365;28;20068;-75
2023/04/18 13:30:24;;;;;;;1189.22;999.90;;;;;;;22.64;38.08;100255.72;20722521;28;20057;-74
2023/04/18 13:40:25;;;;;;;1191.47;999.90;;;;;;;22.76;38.67;100251.16;20715321;28;20081;-73
2023/04/18 13:50:25;;;;;;;1196.25;999.90;;;;;;;22.84;38.91;100246.06;20714946;28;20092;-74
2023/04/18 14:00:26;;;;;;;1198.88;999.90;;;;;;;22.94;38.45;100247.91;20729865;28;20161;-74
2023/04/18 14:10:27;;;;;;;1203.97;999.90;;;;;;;23.03;38.21;100240.03;20720444;28;20152;-74
2023/04/18 14:20:33;;;;;;;1209.43;999.90;;;;;;;23.18;37.96;100237.84;20728117;28;20034;-72
2023/04/18 14:30:35;;;;;;;1221.80;999.90;;;;;;;23.39;37.05;100233.44;20705368;28;20033;-72
2023/04/18 14:49:25;;;;;;;2.80;1.50;;;;;;;24.73;33.72;100233.56;20805637;27;20750;-74
2023/04/18 14:59:27;;;;;;;8.68;1.63;;;;;;;24.87;33.82;100232.28;20793363;28;20042;-74
2023/04/18 15:09:28;;;;;;;2.60;1.55;;;;;;;25.07;32.90;100233.00;20754162;28;20037;-81
2023/04/18 15:19:30;;;;;;;2.47;1.40;;;;;;;25.23;32.52;100225.22;20748226;28;20133;-82
2023/04/18 15:29:32;;;;;;;1.88;1.15;;;;;;;25.36;31.71;100230.16;20723755;28;20481;-84
2023/04/18 15:39:33;;;;;;;3.97;1.50;;;;;;;25.48;27.84;100225.50;20660885;28;20125;-81
2023/04/18 15:49:33;;;;;;;6.60;1.90;;;;;;;25.15;29.59;100234.91;20681998;28;20051;-80
2023/04/18 15:59:34;;;;;;;6.47;1.40;;;;;;;24.94;28.31;100236.81;20599347;28;20047;-78
2023/04/18 16:09:35;;;;;;;5.63;2.00;;;;;;;24.96;27.63;100236.66;20626715;28;20108;-76
2023/04/18 16:19:37;;;;;;;6.32;1.63;;;;;;;24.55;26.81;100249.38;20602634;28;20050;-78
2023/04/18 16:29:38;;;;;;;3.22;1.95;;;;;;;24.26;28.23;100258.22;20587899;28;20049;-77
2023/04/18 16:39:38;;;;;;;3.70;1.65;;;;;;;24.03;29.00;100266.44;20586309;28;20050;-77
2023/04/18 16:49:40;;;;;;;2.85;1.50;;;;;;;23.83;30.68;100273.53;20592536;28;23827;-78
2023/04/18 16:59:43;;;;;;;3.17;1.80;;;;;;;23.62;30.37;100263.06;20571372;28;20038;-77
2023/04/18 17:09:43;;;;;;;3.28;1.80;;;;;;;23.44;30.58;100269.06;20596039;28;20158;-79
2023/04/18 17:19:45;;;;;;;7.75;5.07;;;;;;;23.18;30.52;100269.56;20614222;28;20047;-76
2023/04/18 17:29:46;;;;;;;6.97;3.13;;;;;;;23.00;30.37;100271.97;20590053;28;20050;-78
2023/04/18 17:39:47;;;;;;;10.00;3.20;;;;;;;22.91;29.84;100282.50;20600254;28;20097;-78
2023/04/18 17:49:48;;;;;;;5.47;3.90;;;;;;;22.93;34.62;100291.94;20590978;28;20046;-75
2023/04/18 17:59:48;;;;;;;6.82;3.28;;;;;;;22.89;35.96;100298.47;20595509;28;21693;-75
2023/04/18 18:09:49;;;;;;;6.65;3.47;;;;;;;22.89;37.02;100306.41;20592983;28;20056;-74
2023/04/18 18:19:53;;;;;;;5.53;3.28;;;;;;;22.86;37.62;100319.84;20589180;28;20046;-75
2023/04/18 18:29:55;;;;;;;6.60;3.07;;;;;;;22.85;37.73;100320.81;20591493;28;21646;-78
2023/04/18 18:39:55;;;;;;;3.50;2.80;;;;;;;22.78;38.38;100330.25;20595394;28;20054;-77
2023/04/18 18:49:56;;;;;;;8.15;3.17;;;;;;;22.77;39.37;100332.03;20598567;28;20053;-76
2023/04/18 18:59:57;;;;;;;6.90;3.45;;;;;;;22.77;39.13;100347.03;20634738;28;20077;-76
2023/04/18 19:10:05;;;;;;;6.80;2.95;;;;;;;22.70;39.45;100367.81;20616602;28;20126;-77
2023/04/18 19:20:06;;;;;;;8.80;2.88;;;;;;;22.66;39.74;100376.97;20615498;28;20884;-76
2023/04/18 19:30:07;;;;;;;6.32;2.58;;;;;;;22.57;40.06;100378.59;20652359;28;20042;-76
2023/04/18 19:40:09;;;;;;;6.23;2.70;;;;;;;22.56;40.32;100384.84;20644232;28;20034;-76
2023/04/18 19:50:10;;;;;;;4.40;2.60;;;;;;;22.54;40.74;100389.41;20616125;28;20031;-77
2023/04/18 20:00:12;;;;;;;4.25;3.08;;;;;;;22.53;41.08;100396.47;20664966;28;20120;-74
2023/04/18 20:10:12;;;;;;;4.13;2.57;;;;;;;22.54;41.25;100405.22;20621700;28;20056;-76
2023/04/18 20:20:13;;;;;;;4.78;2.70;;;;;;;22.51;41.17;100400.22;20643740;28;20137;-75
2023/04/18 20:30:14;;;;;;;5.75;2.40;;;;;;;22.51;41.59;100400.22;20618390;28;20054;-76
2023/04/18 20:40:15;;;;;;;3.90;2.35;;;;;;;22.51;41.57;100405.50;20601584;28;20615;-76
2023/04/18 20:50:17;;;;;;;3.10;2.22;;;;;;;22.48;41.59;100398.66;20603194;28;20042;-76
2023/04/18 21:00:17;;;;;;;3.50;2.20;;;;;;;22.47;42.16;100406.69;20608439;28;20049;-74
2023/04/18 21:10:18;;;;;;;2.40;2.10;;;;;;;22.43;42.24;100405.28;20611325;28;20102;-75
2023/04/18 21:20:18;;;;;;;3.78;2.42;;;;;;;22.41;42.65;100394.00;20606383;28;20312;-75
2023/04/18 21:30:20;;;;;;;3.97;2.30;;;;;;;22.36;42.72;100394.34;20605358;28;20494;-76
2023/04/18 21:40:21;;;;;;;3.85;2.30;;;;;;;22.36;42.74;100389.06;20614670;28;20061;-76
2023/04/18 21:50:21;;;;;;;3.85;2.50;;;;;;;22.36;42.83;100384.66;20606953;28;20039;-76
2023/04/18 22:00:22;;;;;;;3.30;2.60;;;;;;;22.34;42.85;100383.94;20604315;28;20066;-78
2023/04/18 22:10:23;;;;;;;3.10;2.38;;;;;;;22.33;43.15;100378.78;20613804;28;20089;-77
2023/04/18 22:20:25;;;;;;;2.67;2.33;;;;;;;22.33;43.09;100379.63;20610250;28;20070;-77
2023/04/18 22:30:26;;;;;;;3.83;2.50;;;;;;;22.30;43.18;100368.47;20630738;28;20034;-77
2023/04/18 22:40:26;;;;;;;3.67;2.22;;;;;;;22.31;43.58;100359.59;20598912;28;20054;-76
2023/04/18 22:50:28;;;;;;;3.72;2.20;;;;;;;22.30;43.62;100347.38;20630486;28;20129;-77
2023/04/18 23:00:29;;;;;;;3.88;2.35;;;;;;;22.28;43.52;100341.41;20600669;28;20046;-76
2023/04/18 23:10:31;;;;;;;2.60;2.30;;;;;;;22.27;43.86;100327.38;20613893;28;20035;-76
2023/04/18 23:20:31;;;;;;;3.20;2.13;;;;;;;22.26;44.06;100327.50;20608680;28;20053;-77
2023/04/18 23:30:34;;;;;;;2.45;2.25;;;;;;;22.23;44.30;100312.78;20610755;28;20035;-76
2023/04/18 23:40:35;;;;;;;2.53;2.03;;;;;;;22.20;44.42;100295.41;20642976;28;20047;-77
2023/04/18 23:50:35;;;;;;;2.17;1.80;;;;;;;22.22;44.05;100282.09;20605688;28;20046;-76
